»·PEaware :: NKS959 KPHX-KLAX

NKS959 :: KPHX-KLAX

FLIGHT INFORMATION

Flight Status: Arrived
Operator:
Spirit Airlines
More flights by this operator :: More flights under this callsign
Pilot: Ben F. (13029)
Aircraft: AIRBUS A320
(A320)
More flights by this aircraft type
Origin: KPHX Phoenix Sky Harbor Intl
United States
Destination: KLAX Los Angeles Intl
United States
More flights between these airports :: More routes between these airports
Route: +KEENS2 MESSI ESTWD HLYWD1
File this flight plan on PilotEdge
Remarks: RMK / SIMBRIEF
Altitude:
(Current/Filed)
34,000ft
Speed:
(Current/Filed)
443kts
Departed: 01-Jul-20 06:43 PM
Arrived: 01-Jul-20 07:37 PM
Distance/Time
Traveled:
321nm/0:54
Distance/Time
To Go:
Arrived

Flight Plot

Page will automatically refresh every two minutes.

Flight plan parsing failed; only flown route is shown


Map Options




Map Legend


Flown Route
Filed Route
Departure Airport
Arrival Airport
Navaid (VOR, NDB)
Fix

Horizontal Profiles

Position Reports

Time Latitude Longitude Heading Altitude Ground
Speed
01-Jul-20 18:08 33.433468 -112.009344 111 1118ft 0kts
01-Jul-20 18:09 33.433468 -112.009344 111 1118ft 0kts
01-Jul-20 18:10 33.433468 -112.009344 111 1118ft 0kts
01-Jul-20 18:11 33.433468 -112.009344 111 1118ft 0kts
01-Jul-20 18:12 33.433468 -112.009344 111 1118ft 0kts
01-Jul-20 18:13 33.433468 -112.009344 111 1118ft 0kts
01-Jul-20 18:14 33.433468 -112.009344 111 1118ft 0kts
01-Jul-20 18:16 33.433468 -112.009344 111 1118ft 0kts
01-Jul-20 18:17 33.433468 -112.009344 111 1118ft 0kts
01-Jul-20 18:18 33.433468 -112.009344 111 1118ft 0kts
01-Jul-20 18:19 33.433468 -112.009344 111 1118ft 0kts
01-Jul-20 18:20 33.433468 -112.009344 111 1118ft 0kts
01-Jul-20 18:21 33.433468 -112.009344 111 1118ft 0kts
01-Jul-20 18:22 33.433468 -112.009344 111 1118ft 0kts
01-Jul-20 18:23 33.433468 -112.009344 111 1118ft 0kts
01-Jul-20 18:24 33.433468 -112.009344 111 1118ft 0kts
01-Jul-20 18:25 33.433468 -112.009344 111 1118ft 0kts
01-Jul-20 18:26 33.433468 -112.009344 111 1118ft 0kts
01-Jul-20 18:27 33.433468 -112.009344 111 1118ft 0kts
01-Jul-20 18:28 33.433468 -112.009344 111 1118ft 0kts
01-Jul-20 18:29 33.433468 -112.009344 111 1118ft 0kts
01-Jul-20 18:29 33.433468 -112.009344 111 1118ft 0kts
01-Jul-20 18:31 33.433468 -112.009345 111 1118ft 0kts
01-Jul-20 18:32 33.433652 -112.009908 121 1118ft 2kts
01-Jul-20 18:32 33.433978 -112.010093 180 1118ft 0kts
01-Jul-20 18:34 33.433978 -112.010093 180 1118ft 0kts
01-Jul-20 18:34 33.433978 -112.010093 180 1118ft 0kts
01-Jul-20 18:35 33.433978 -112.010093 180 1118ft 0kts
01-Jul-20 18:37 33.433978 -112.010093 180 1118ft 0kts
01-Jul-20 18:37 33.433196 -112.010038 157 1118ft 10kts
01-Jul-20 18:38 33.432827 -112.003899 90 1118ft 24kts
01-Jul-20 18:39 33.432861 -111.996040 92 1118ft 1kts
01-Jul-20 18:40 33.432038 -111.993460 179 1118ft 0kts
01-Jul-20 18:41 33.431541 -111.993466 183 1118ft 8kts
01-Jul-20 18:42 33.431039 -112.003724 269 1118ft 128kts
01-Jul-20 18:43 33.431143 -112.060368 264 3491ft 189kts
01-Jul-20 18:44 33.411004 -112.131132 249 5063ft 261kts
01-Jul-20 18:45 33.393488 -112.217424 276 7643ft 282kts
01-Jul-20 18:46 33.407347 -112.310207 276 8030ft 283kts
01-Jul-20 18:47 33.421205 -112.403846 276 8330ft 287kts
01-Jul-20 18:48 33.435445 -112.500603 276 10570ft 314kts
01-Jul-20 18:49 33.450329 -112.613267 269 11914ft 360kts
01-Jul-20 18:50 33.451941 -112.734711 267 14137ft 368kts
01-Jul-20 18:51 33.472353 -112.855996 289 16138ft 386kts
01-Jul-20 18:52 33.514522 -112.976187 289 17989ft 396kts
01-Jul-20 18:53 33.557520 -113.099477 289 19721ft 405kts
01-Jul-20 18:54 33.601220 -113.225250 289 21357ft 413kts
01-Jul-20 18:55 33.645606 -113.353495 289 22881ft 420kts
01-Jul-20 18:56 33.690561 -113.483909 289 24306ft 426kts
01-Jul-20 18:57 33.736140 -113.616680 289 25611ft 433kts
01-Jul-20 18:58 33.782302 -113.751717 288 26823ft 438kts
01-Jul-20 18:59 33.828670 -113.887854 288 27937ft 444kts
01-Jul-20 19:00 33.875720 -114.026544 288 28957ft 448kts
01-Jul-20 19:01 33.914439 -114.168000 278 30169ft 440kts
01-Jul-20 19:02 33.938619 -114.310657 278 31462ft 433kts
01-Jul-20 19:03 33.962499 -114.452333 277 32623ft 428kts
01-Jul-20 19:04 33.985925 -114.592380 277 33670ft 423kts
01-Jul-20 19:05 34.008711 -114.729613 277 33775ft 420kts
01-Jul-20 19:06 34.031812 -114.869681 278 33785ft 428kts
01-Jul-20 19:07 34.054811 -115.010309 279 33778ft 427kts
01-Jul-20 19:08 34.077627 -115.150421 281 33755ft 426kts
01-Jul-20 19:09 34.100332 -115.290835 281 33792ft 430kts
01-Jul-20 19:10 34.123244 -115.433659 281 33926ft 432kts
01-Jul-20 19:11 34.146058 -115.577008 281 33955ft 433kts
01-Jul-20 19:12 34.160854 -115.720701 265 33947ft 436kts
01-Jul-20 19:13 34.147005 -115.864305 264 33940ft 436kts
01-Jul-20 19:14 34.132868 -116.009014 264 33920ft 435kts
01-Jul-20 19:15 34.118647 -116.153757 264 32558ft 430kts
01-Jul-20 19:16 34.104557 -116.295388 264 30443ft 422kts
01-Jul-20 19:17 34.089778 -116.434277 264 28342ft 414kts
01-Jul-20 19:18 34.075009 -116.571143 263 26277ft 409kts
01-Jul-20 19:19 34.062723 -116.699570 264 24340ft 359kts
01-Jul-20 19:20 34.051858 -116.816700 264 22617ft 355kts
01-Jul-20 19:21 34.039221 -116.934036 262 20779ft 349kts
01-Jul-20 19:22 34.024386 -117.049066 262 18845ft 346kts
01-Jul-20 19:23 34.010947 -117.163308 262 16961ft 340kts
01-Jul-20 19:24 33.997636 -117.274813 262 15183ft 332kts
01-Jul-20 19:25 33.984256 -117.388173 262 13658ft 353kts
01-Jul-20 19:26 33.972119 -117.504128 269 11998ft 332kts
01-Jul-20 19:27 33.970350 -117.612007 269 11999ft 318kts
01-Jul-20 19:28 33.968477 -117.719095 268 12002ft 318kts
01-Jul-20 19:29 33.966529 -117.824930 268 12005ft 310kts
01-Jul-20 19:30 33.964561 -117.926551 268 11490ft 313kts
01-Jul-20 19:31 33.962558 -118.026272 268 9389ft 286kts
01-Jul-20 19:32 33.960710 -118.118746 271 7601ft 258kts
01-Jul-20 19:33 33.955966 -118.202851 262 5006ft 249kts
01-Jul-20 19:34 33.947685 -118.282763 262 2448ft 233kts
01-Jul-20 19:35 33.940134 -118.355413 261 740ft 215kts
01-Jul-20 19:36 33.934398 -118.411632 262 112ft 12kts
01-Jul-20 19:37 33.935465 -118.412531 353 112ft 0kts
01-Jul-20 19:38 33.938040 -118.412432 22 112ft 15kts
01-Jul-20 19:39 33.938855 -118.407336 83 112ft 16kts
01-Jul-20 19:40 33.940189 -118.405167 77 112ft 3kts
01-Jul-20 19:41 33.940228 -118.404900 81 112ft 0kts

Navigation Log

Ident Type
Flight plan parsing failed, navigation log unavailable